sensor_id;sensor_type;location;lat;lon;timestamp;P1;durP1;ratioP1;P2;durP2;ratioP2
74791;SDS011;63319;46.046;17.802;2024-02-21T00:00:02;10.07;;;4.20;;
74791;SDS011;63319;46.046;17.802;2024-02-21T00:03:05;8.68;;;4.32;;
74791;SDS011;63319;46.046;17.802;2024-02-21T00:06:08;13.00;;;5.20;;
74791;SDS011;63319;46.046;17.802;2024-02-21T00:09:11;13.10;;;6.22;;
74791;SDS011;63319;46.046;17.802;2024-02-21T00:12:14;30.23;;;12.25;;
74791;SDS011;63319;46.046;17.802;2024-02-21T00:15:17;28.17;;;10.80;;
74791;SDS011;63319;46.046;17.802;2024-02-21T00:18:20;23.33;;;9.38;;
74791;SDS011;63319;46.046;17.802;2024-02-21T00:21:25;17.75;;;8.50;;
74791;SDS011;63319;46.046;17.802;2024-02-21T00:24:28;17.27;;;7.60;;
74791;SDS011;63319;46.046;17.802;2024-02-21T00:27:31;14.13;;;7.32;;
74791;SDS011;63319;46.046;17.802;2024-02-21T00:30:34;12.55;;;5.90;;
74791;SDS011;63319;46.046;17.802;2024-02-21T00:33:38;11.90;;;4.97;;
74791;SDS011;63319;46.046;17.802;2024-02-21T00:36:41;10.60;;;4.93;;
74791;SDS011;63319;46.046;17.802;2024-02-21T00:39:44;9.55;;;4.57;;
74791;SDS011;63319;46.046;17.802;2024-02-21T00:42:47;10.27;;;5.47;;
74791;SDS011;63319;46.046;17.802;2024-02-21T00:45:50;10.80;;;4.47;;
74791;SDS011;63319;46.046;17.802;2024-02-21T00:48:53;7.93;;;3.75;;
74791;SDS011;63319;46.046;17.802;2024-02-21T00:51:56;7.80;;;3.17;;
74791;SDS011;63319;46.046;17.802;2024-02-21T00:54:59;9.00;;;4.10;;
74791;SDS011;63319;46.046;17.802;2024-02-21T00:58:02;9.30;;;4.05;;
74791;SDS011;63319;46.046;17.802;2024-02-21T01:01:05;8.60;;;2.95;;
74791;SDS011;63319;46.046;17.802;2024-02-21T01:04:11;7.75;;;3.08;;
74791;SDS011;63319;46.046;17.802;2024-02-21T01:07:15;8.75;;;3.10;;
74791;SDS011;63319;46.046;17.802;2024-02-21T01:10:18;7.13;;;3.60;;
74791;SDS011;63319;46.046;17.802;2024-02-21T01:13:21;7.75;;;3.10;;
74791;SDS011;63319;46.046;17.802;2024-02-21T01:16:25;7.07;;;3.00;;
74791;SDS011;63319;46.046;17.802;2024-02-21T01:19:28;7.65;;;3.65;;
74791;SDS011;63319;46.046;17.802;2024-02-21T01:22:32;7.10;;;3.67;;
74791;SDS011;63319;46.046;17.802;2024-02-21T01:25:35;9.73;;;4.23;;
74791;SDS011;63319;46.046;17.802;2024-02-21T01:28:38;11.05;;;4.30;;
74791;SDS011;63319;46.046;17.802;2024-02-21T01:31:41;8.18;;;3.70;;
74791;SDS011;63319;46.046;17.802;2024-02-21T01:34:44;8.18;;;3.60;;
74791;SDS011;63319;46.046;17.802;2024-02-21T01:37:47;8.40;;;3.42;;
74791;SDS011;63319;46.046;17.802;2024-02-21T01:40:51;9.60;;;3.50;;
74791;SDS011;63319;46.046;17.802;2024-02-21T01:43:54;10.25;;;3.53;;
74791;SDS011;63319;46.046;17.802;2024-02-21T01:46:57;9.90;;;4.27;;
74791;SDS011;63319;46.046;17.802;2024-02-21T01:50:01;11.07;;;4.70;;
74791;SDS011;63319;46.046;17.802;2024-02-21T01:53:05;9.65;;;4.07;;
74791;SDS011;63319;46.046;17.802;2024-02-21T01:56:09;10.10;;;4.80;;
74791;SDS011;63319;46.046;17.802;2024-02-21T01:59:13;10.40;;;4.10;;
74791;SDS011;63319;46.046;17.802;2024-02-21T02:02:19;10.07;;;3.72;;
74791;SDS011;63319;46.046;17.802;2024-02-21T02:05:22;6.43;;;2.30;;
74791;SDS011;63319;46.046;17.802;2024-02-21T02:08:26;6.55;;;2.50;;
74791;SDS011;63319;46.046;17.802;2024-02-21T02:11:31;6.88;;;2.03;;
74791;SDS011;63319;46.046;17.802;2024-02-21T02:14:34;6.18;;;1.98;;
74791;SDS011;63319;46.046;17.802;2024-02-21T02:17:37;5.00;;;1.90;;
74791;SDS011;63319;46.046;17.802;2024-02-21T02:20:40;7.85;;;2.20;;
74791;SDS011;63319;46.046;17.802;2024-02-21T02:23:44;5.97;;;1.73;;
74791;SDS011;63319;46.046;17.802;2024-02-21T02:26:47;6.57;;;2.03;;
74791;SDS011;63319;46.046;17.802;2024-02-21T02:29:50;5.45;;;2.10;;
74791;SDS011;63319;46.046;17.802;2024-02-21T02:32:53;10.65;;;2.33;;
74791;SDS011;63319;46.046;17.802;2024-02-21T02:35:56;5.68;;;1.92;;
74791;SDS011;63319;46.046;17.802;2024-02-21T02:39:00;7.07;;;2.03;;
74791;SDS011;63319;46.046;17.802;2024-02-21T02:42:03;5.97;;;2.03;;
74791;SDS011;63319;46.046;17.802;2024-02-21T02:45:06;5.72;;;2.47;;
74791;SDS011;63319;46.046;17.802;2024-02-21T02:48:10;6.63;;;2.50;;
74791;SDS011;63319;46.046;17.802;2024-02-21T02:51:13;5.57;;;2.20;;
74791;SDS011;63319;46.046;17.802;2024-02-21T02:54:16;6.75;;;2.38;;
74791;SDS011;63319;46.046;17.802;2024-02-21T02:57:19;6.87;;;2.30;;
74791;SDS011;63319;46.046;17.802;2024-02-21T03:00:22;7.72;;;2.10;;
74791;SDS011;63319;46.046;17.802;2024-02-21T03:03:25;7.95;;;2.08;;
74791;SDS011;63319;46.046;17.802;2024-02-21T03:06:28;6.35;;;2.20;;
74791;SDS011;63319;46.046;17.802;2024-02-21T03:09:31;37.90;;;13.48;;
74791;SDS011;63319;46.046;17.802;2024-02-21T03:12:34;15.25;;;5.85;;
74791;SDS011;63319;46.046;17.802;2024-02-21T03:15:37;12.02;;;4.00;;
74791;SDS011;63319;46.046;17.802;2024-02-21T03:18:41;8.73;;;4.50;;
74791;SDS011;63319;46.046;17.802;2024-02-21T03:21:46;14.43;;;5.20;;
74791;SDS011;63319;46.046;17.802;2024-02-21T03:24:49;9.32;;;3.70;;
74791;SDS011;63319;46.046;17.802;2024-02-21T03:27:52;10.97;;;4.17;;
74791;SDS011;63319;46.046;17.802;2024-02-21T03:30:56;11.02;;;3.90;;
74791;SDS011;63319;46.046;17.802;2024-02-21T03:33:59;8.05;;;3.33;;
74791;SDS011;63319;46.046;17.802;2024-02-21T03:37:02;7.20;;;3.33;;
74791;SDS011;63319;46.046;17.802;2024-02-21T03:40:08;9.48;;;3.80;;
74791;SDS011;63319;46.046;17.802;2024-02-21T03:43:12;10.18;;;3.88;;
74791;SDS011;63319;46.046;17.802;2024-02-21T03:46:15;9.18;;;3.58;;
74791;SDS011;63319;46.046;17.802;2024-02-21T03:49:18;10.83;;;3.10;;
74791;SDS011;63319;46.046;17.802;2024-02-21T03:52:21;10.88;;;3.80;;
74791;SDS011;63319;46.046;17.802;2024-02-21T03:55:24;10.13;;;4.47;;
74791;SDS011;63319;46.046;17.802;2024-02-21T03:58:27;11.07;;;4.17;;
74791;SDS011;63319;46.046;17.802;2024-02-21T04:01:30;13.60;;;4.78;;
74791;SDS011;63319;46.046;17.802;2024-02-21T04:04:34;11.73;;;3.42;;
74791;SDS011;63319;46.046;17.802;2024-02-21T04:07:39;6.72;;;2.30;;
74791;SDS011;63319;46.046;17.802;2024-02-21T04:10:43;8.30;;;3.20;;
74791;SDS011;63319;46.046;17.802;2024-02-21T04:13:45;10.00;;;2.90;;
74791;SDS011;63319;46.046;17.802;2024-02-21T04:16:51;8.55;;;2.72;;
74791;SDS011;63319;46.046;17.802;2024-02-21T04:20:00;9.37;;;2.70;;
74791;SDS011;63319;46.046;17.802;2024-02-21T04:23:08;9.52;;;2.60;;
74791;SDS011;63319;46.046;17.802;2024-02-21T04:26:11;6.70;;;2.78;;
74791;SDS011;63319;46.046;17.802;2024-02-21T04:29:13;7.93;;;2.60;;
74791;SDS011;63319;46.046;17.802;2024-02-21T04:32:17;10.55;;;2.88;;
74791;SDS011;63319;46.046;17.802;2024-02-21T04:35:20;8.35;;;3.15;;
74791;SDS011;63319;46.046;17.802;2024-02-21T04:38:23;7.47;;;2.53;;
74791;SDS011;63319;46.046;17.802;2024-02-21T04:41:26;8.60;;;2.80;;
74791;SDS011;63319;46.046;17.802;2024-02-21T04:44:29;7.30;;;2.92;;
74791;SDS011;63319;46.046;17.802;2024-02-21T04:47:32;11.65;;;7.35;;
74791;SDS011;63319;46.046;17.802;2024-02-21T04:50:36;9.53;;;4.17;;
74791;SDS011;63319;46.046;17.802;2024-02-21T04:53:39;10.93;;;4.00;;
74791;SDS011;63319;46.046;17.802;2024-02-21T04:56:42;12.75;;;4.40;;
74791;SDS011;63319;46.046;17.802;2024-02-21T04:59:45;21.47;;;8.00;;
74791;SDS011;63319;46.046;17.802;2024-02-21T05:02:51;19.27;;;6.22;;
74791;SDS011;63319;46.046;17.802;2024-02-21T05:05:54;14.43;;;4.40;;
74791;SDS011;63319;46.046;17.802;2024-02-21T05:08:58;18.35;;;4.68;;
74791;SDS011;63319;46.046;17.802;2024-02-21T05:12:01;10.82;;;4.22;;
74791;SDS011;63319;46.046;17.802;2024-02-21T05:15:05;9.70;;;3.75;;
74791;SDS011;63319;46.046;17.802;2024-02-21T05:18:08;9.27;;;4.35;;
74791;SDS011;63319;46.046;17.802;2024-02-21T05:21:11;8.57;;;3.93;;
74791;SDS011;63319;46.046;17.802;2024-02-21T05:24:14;11.40;;;4.25;;
74791;SDS011;63319;46.046;17.802;2024-02-21T05:27:17;15.27;;;4.90;;
74791;SDS011;63319;46.046;17.802;2024-02-21T05:30:20;6.97;;;3.10;;
74791;SDS011;63319;46.046;17.802;2024-02-21T05:33:23;10.05;;;3.72;;
74791;SDS011;63319;46.046;17.802;2024-02-21T05:36:26;9.23;;;3.50;;
74791;SDS011;63319;46.046;17.802;2024-02-21T05:39:31;7.00;;;3.22;;
74791;SDS011;63319;46.046;17.802;2024-02-21T05:42:34;8.15;;;3.60;;
74791;SDS011;63319;46.046;17.802;2024-02-21T05:45:37;11.05;;;5.43;;
74791;SDS011;63319;46.046;17.802;2024-02-21T05:48:40;11.75;;;6.63;;
74791;SDS011;63319;46.046;17.802;2024-02-21T05:51:43;15.80;;;9.17;;
74791;SDS011;63319;46.046;17.802;2024-02-21T05:54:46;14.07;;;7.38;;
74791;SDS011;63319;46.046;17.802;2024-02-21T05:57:55;17.50;;;7.97;;
74791;SDS011;63319;46.046;17.802;2024-02-21T06:00:58;15.70;;;6.87;;
74791;SDS011;63319;46.046;17.802;2024-02-21T06:04:01;13.65;;;6.82;;
74791;SDS011;63319;46.046;17.802;2024-02-21T06:07:05;22.65;;;8.05;;
74791;SDS011;63319;46.046;17.802;2024-02-21T06:10:08;25.65;;;10.13;;
74791;SDS011;63319;46.046;17.802;2024-02-21T06:13:11;25.85;;;11.38;;
74791;SDS011;63319;46.046;17.802;2024-02-21T06:16:14;25.13;;;11.68;;
74791;SDS011;63319;46.046;17.802;2024-02-21T06:19:18;27.10;;;11.57;;
74791;SDS011;63319;46.046;17.802;2024-02-21T06:22:21;28.90;;;12.50;;
74791;SDS011;63319;46.046;17.802;2024-02-21T06:25:24;26.33;;;12.90;;
74791;SDS011;63319;46.046;17.802;2024-02-21T06:28:27;23.50;;;11.40;;
74791;SDS011;63319;46.046;17.802;2024-02-21T06:31:30;24.03;;;9.67;;
74791;SDS011;63319;46.046;17.802;2024-02-21T06:34:34;17.33;;;6.75;;
74791;SDS011;63319;46.046;17.802;2024-02-21T06:37:38;17.15;;;6.18;;
74791;SDS011;63319;46.046;17.802;2024-02-21T06:40:41;16.15;;;6.38;;
74791;SDS011;63319;46.046;17.802;2024-02-21T06:43:45;13.05;;;5.97;;
74791;SDS011;63319;46.046;17.802;2024-02-21T06:46:49;15.35;;;6.30;;
74791;SDS011;63319;46.046;17.802;2024-02-21T06:49:51;19.25;;;6.88;;
74791;SDS011;63319;46.046;17.802;2024-02-21T06:52:54;16.60;;;6.17;;
74791;SDS011;63319;46.046;17.802;2024-02-21T06:55:57;14.52;;;6.55;;
74791;SDS011;63319;46.046;17.802;2024-02-21T06:59:01;15.13;;;7.93;;
74791;SDS011;63319;46.046;17.802;2024-02-21T07:02:05;21.33;;;7.97;;
74791;SDS011;63319;46.046;17.802;2024-02-21T07:05:08;20.20;;;10.00;;
74791;SDS011;63319;46.046;17.802;2024-02-21T07:08:12;21.70;;;8.80;;
74791;SDS011;63319;46.046;17.802;2024-02-21T07:11:15;16.02;;;7.88;;
74791;SDS011;63319;46.046;17.802;2024-02-21T07:14:18;19.75;;;7.90;;
74791;SDS011;63319;46.046;17.802;2024-02-21T07:17:21;23.58;;;7.75;;
74791;SDS011;63319;46.046;17.802;2024-02-21T07:20:24;24.75;;;8.80;;
74791;SDS011;63319;46.046;17.802;2024-02-21T07:23:28;23.30;;;7.83;;
74791;SDS011;63319;46.046;17.802;2024-02-21T07:26:31;18.45;;;7.20;;
74791;SDS011;63319;46.046;17.802;2024-02-21T07:29:34;18.23;;;7.45;;
74791;SDS011;63319;46.046;17.802;2024-02-21T07:32:37;13.40;;;6.77;;
74791;SDS011;63319;46.046;17.802;2024-02-21T07:35:39;16.45;;;6.75;;
74791;SDS011;63319;46.046;17.802;2024-02-21T07:38:44;17.30;;;6.82;;
74791;SDS011;63319;46.046;17.802;2024-02-21T07:41:47;14.32;;;7.40;;
74791;SDS011;63319;46.046;17.802;2024-02-21T07:44:51;18.63;;;8.13;;
74791;SDS011;63319;46.046;17.802;2024-02-21T07:47:54;22.55;;;8.23;;
74791;SDS011;63319;46.046;17.802;2024-02-21T07:50:57;20.08;;;8.75;;
74791;SDS011;63319;46.046;17.802;2024-02-21T07:54:00;12.77;;;6.27;;
74791;SDS011;63319;46.046;17.802;2024-02-21T07:57:03;13.68;;;6.35;;
74791;SDS011;63319;46.046;17.802;2024-02-21T08:00:07;13.43;;;6.68;;
74791;SDS011;63319;46.046;17.802;2024-02-21T08:03:17;11.63;;;5.83;;
74791;SDS011;63319;46.046;17.802;2024-02-21T08:06:20;12.05;;;5.63;;
74791;SDS011;63319;46.046;17.802;2024-02-21T08:09:23;13.95;;;5.82;;
74791;SDS011;63319;46.046;17.802;2024-02-21T08:12:26;14.73;;;6.10;;
74791;SDS011;63319;46.046;17.802;2024-02-21T08:15:29;12.02;;;5.40;;
74791;SDS011;63319;46.046;17.802;2024-02-21T08:18:32;10.80;;;5.50;;
74791;SDS011;63319;46.046;17.802;2024-02-21T08:21:39;13.38;;;5.60;;
74791;SDS011;63319;46.046;17.802;2024-02-21T08:24:42;13.23;;;6.27;;
74791;SDS011;63319;46.046;17.802;2024-02-21T08:27:45;17.15;;;7.38;;
74791;SDS011;63319;46.046;17.802;2024-02-21T08:30:48;15.48;;;7.68;;
74791;SDS011;63319;46.046;17.802;2024-02-21T08:33:51;16.07;;;7.77;;
74791;SDS011;63319;46.046;17.802;2024-02-21T08:36:54;18.17;;;7.40;;
74791;SDS011;63319;46.046;17.802;2024-02-21T08:39:57;13.88;;;7.10;;
74791;SDS011;63319;46.046;17.802;2024-02-21T08:43:01;18.63;;;8.20;;
74791;SDS011;63319;46.046;17.802;2024-02-21T08:46:04;13.20;;;6.85;;
74791;SDS011;63319;46.046;17.802;2024-02-21T08:49:09;13.57;;;6.72;;
74791;SDS011;63319;46.046;17.802;2024-02-21T08:52:13;13.38;;;6.00;;
74791;SDS011;63319;46.046;17.802;2024-02-21T08:55:16;14.90;;;5.63;;
74791;SDS011;63319;46.046;17.802;2024-02-21T08:58:19;10.73;;;5.10;;
74791;SDS011;63319;46.046;17.802;2024-02-21T09:01:25;12.27;;;5.90;;
74791;SDS011;63319;46.046;17.802;2024-02-21T09:04:29;13.37;;;5.03;;
74791;SDS011;63319;46.046;17.802;2024-02-21T09:07:34;8.75;;;4.30;;
74791;SDS011;63319;46.046;17.802;2024-02-21T09:10:37;8.57;;;4.20;;
74791;SDS011;63319;46.046;17.802;2024-02-21T09:13:40;12.30;;;5.70;;
74791;SDS011;63319;46.046;17.802;2024-02-21T09:16:43;8.57;;;4.38;;
74791;SDS011;63319;46.046;17.802;2024-02-21T09:19:46;11.20;;;4.40;;
74791;SDS011;63319;46.046;17.802;2024-02-21T09:22:51;12.80;;;3.60;;
74791;SDS011;63319;46.046;17.802;2024-02-21T09:25:55;9.70;;;4.00;;
74791;SDS011;63319;46.046;17.802;2024-02-21T09:28:58;13.02;;;4.63;;
74791;SDS011;63319;46.046;17.802;2024-02-21T09:32:03;12.30;;;4.75;;
74791;SDS011;63319;46.046;17.802;2024-02-21T09:35:06;12.23;;;4.03;;
74791;SDS011;63319;46.046;17.802;2024-02-21T09:38:10;8.60;;;4.30;;
74791;SDS011;63319;46.046;17.802;2024-02-21T09:41:17;11.90;;;5.32;;
74791;SDS011;63319;46.046;17.802;2024-02-21T09:44:28;10.68;;;4.93;;
74791;SDS011;63319;46.046;17.802;2024-02-21T09:50:50;8.38;;;3.85;;
74791;SDS011;63319;46.046;17.802;2024-02-21T09:53:56;6.90;;;3.42;;
74791;SDS011;63319;46.046;17.802;2024-02-21T09:57:16;15.00;;;6.37;;
74791;SDS011;63319;46.046;17.802;2024-02-21T10:00:20;12.90;;;5.18;;
74791;SDS011;63319;46.046;17.802;2024-02-21T10:03:25;7.93;;;3.90;;
74791;SDS011;63319;46.046;17.802;2024-02-21T10:06:28;11.80;;;3.28;;
74791;SDS011;63319;46.046;17.802;2024-02-21T10:09:31;9.57;;;3.30;;
74791;SDS011;63319;46.046;17.802;2024-02-21T10:12:36;8.57;;;3.42;;
74791;SDS011;63319;46.046;17.802;2024-02-21T10:15:39;8.45;;;3.17;;
74791;SDS011;63319;46.046;17.802;2024-02-21T10:18:42;8.90;;;3.63;;
74791;SDS011;63319;46.046;17.802;2024-02-21T10:22:04;6.65;;;2.42;;
74791;SDS011;63319;46.046;17.802;2024-02-21T10:25:11;8.55;;;2.97;;
74791;SDS011;63319;46.046;17.802;2024-02-21T10:28:15;8.98;;;3.35;;
74791;SDS011;63319;46.046;17.802;2024-02-21T10:31:26;6.67;;;3.13;;
74791;SDS011;63319;46.046;17.802;2024-02-21T10:34:30;10.15;;;5.10;;
74791;SDS011;63319;46.046;17.802;2024-02-21T10:37:33;7.25;;;3.30;;
74791;SDS011;63319;46.046;17.802;2024-02-21T10:40:36;9.53;;;3.87;;
74791;SDS011;63319;46.046;17.802;2024-02-21T10:43:40;5.60;;;2.90;;
74791;SDS011;63319;46.046;17.802;2024-02-21T10:46:43;9.88;;;3.58;;
74791;SDS011;63319;46.046;17.802;2024-02-21T10:49:48;8.30;;;3.58;;
74791;SDS011;63319;46.046;17.802;2024-02-21T10:56:21;7.63;;;3.20;;
74791;SDS011;63319;46.046;17.802;2024-02-21T10:59:31;6.82;;;2.25;;
74791;SDS011;63319;46.046;17.802;2024-02-21T11:02:34;7.20;;;2.35;;
74791;SDS011;63319;46.046;17.802;2024-02-21T11:05:38;35.72;;;20.45;;
74791;SDS011;63319;46.046;17.802;2024-02-21T11:08:41;18.33;;;9.47;;
74791;SDS011;63319;46.046;17.802;2024-02-21T11:11:44;55.25;;;30.65;;
74791;SDS011;63319;46.046;17.802;2024-02-21T11:14:48;36.80;;;17.10;;
74791;SDS011;63319;46.046;17.802;2024-02-21T11:17:55;30.73;;;14.32;;
74791;SDS011;63319;46.046;17.802;2024-02-21T11:21:03;14.27;;;6.03;;
74791;SDS011;63319;46.046;17.802;2024-02-21T11:24:09;20.27;;;8.75;;
74791;SDS011;63319;46.046;17.802;2024-02-21T11:30:16;16.80;;;7.60;;
74791;SDS011;63319;46.046;17.802;2024-02-21T11:33:25;14.80;;;5.83;;
74791;SDS011;63319;46.046;17.802;2024-02-21T11:36:29;13.23;;;5.10;;
74791;SDS011;63319;46.046;17.802;2024-02-21T11:39:32;10.77;;;4.80;;
74791;SDS011;63319;46.046;17.802;2024-02-21T11:42:35;13.90;;;5.72;;
74791;SDS011;63319;46.046;17.802;2024-02-21T11:45:38;10.23;;;3.10;;
74791;SDS011;63319;46.046;17.802;2024-02-21T11:48:43;12.70;;;2.60;;
74791;SDS011;63319;46.046;17.802;2024-02-21T11:51:59;7.57;;;2.85;;
74791;SDS011;63319;46.046;17.802;2024-02-21T11:55:03;13.35;;;4.50;;
74791;SDS011;63319;46.046;17.802;2024-02-21T11:58:07;10.45;;;3.88;;
74791;SDS011;63319;46.046;17.802;2024-02-21T12:01:10;19.50;;;9.47;;
74791;SDS011;63319;46.046;17.802;2024-02-21T12:04:13;12.30;;;3.83;;
74791;SDS011;63319;46.046;17.802;2024-02-21T12:07:19;7.72;;;3.90;;
74791;SDS011;63319;46.046;17.802;2024-02-21T12:10:24;7.85;;;2.92;;
74791;SDS011;63319;46.046;17.802;2024-02-21T12:13:29;11.07;;;2.40;;
74791;SDS011;63319;46.046;17.802;2024-02-21T12:16:32;17.20;;;7.47;;
74791;SDS011;63319;46.046;17.802;2024-02-21T12:19:36;10.73;;;4.70;;
74791;SDS011;63319;46.046;17.802;2024-02-21T12:22:39;42.55;;;20.30;;
74791;SDS011;63319;46.046;17.802;2024-02-21T12:25:44;32.00;;;13.25;;
74791;SDS011;63319;46.046;17.802;2024-02-21T12:28:47;44.08;;;20.38;;
74791;SDS011;63319;46.046;17.802;2024-02-21T12:31:50;27.80;;;11.07;;
74791;SDS011;63319;46.046;17.802;2024-02-21T12:34:54;85.47;;;38.60;;
74791;SDS011;63319;46.046;17.802;2024-02-21T12:37:57;51.17;;;27.77;;
74791;SDS011;63319;46.046;17.802;2024-02-21T12:41:00;14.88;;;6.72;;
74791;SDS011;63319;46.046;17.802;2024-02-21T12:44:04;10.45;;;4.50;;
74791;SDS011;63319;46.046;17.802;2024-02-21T12:47:11;7.77;;;3.03;;
74791;SDS011;63319;46.046;17.802;2024-02-21T12:50:14;11.47;;;5.60;;
74791;SDS011;63319;46.046;17.802;2024-02-21T12:53:18;10.23;;;3.13;;
74791;SDS011;63319;46.046;17.802;2024-02-21T12:56:34;6.28;;;2.50;;
74791;SDS011;63319;46.046;17.802;2024-02-21T12:59:37;7.70;;;2.47;;
74791;SDS011;63319;46.046;17.802;2024-02-21T13:02:39;9.93;;;3.47;;
74791;SDS011;63319;46.046;17.802;2024-02-21T13:05:43;7.00;;;2.63;;
74791;SDS011;63319;46.046;17.802;2024-02-21T13:08:46;8.25;;;2.35;;
74791;SDS011;63319;46.046;17.802;2024-02-21T13:11:49;6.25;;;2.15;;
74791;SDS011;63319;46.046;17.802;2024-02-21T13:14:54;5.75;;;2.60;;
74791;SDS011;63319;46.046;17.802;2024-02-21T13:17:57;10.07;;;2.67;;
74791;SDS011;63319;46.046;17.802;2024-02-21T13:21:01;8.33;;;2.93;;
74791;SDS011;63319;46.046;17.802;2024-02-21T13:24:05;8.98;;;2.72;;
74791;SDS011;63319;46.046;17.802;2024-02-21T13:27:08;5.50;;;2.25;;
74791;SDS011;63319;46.046;17.802;2024-02-21T13:30:11;11.80;;;4.47;;
74791;SDS011;63319;46.046;17.802;2024-02-21T13:33:15;8.50;;;3.10;;
74791;SDS011;63319;46.046;17.802;2024-02-21T13:36:18;6.80;;;2.97;;
74791;SDS011;63319;46.046;17.802;2024-02-21T13:39:21;7.47;;;2.78;;
74791;SDS011;63319;46.046;17.802;2024-02-21T13:42:24;5.82;;;2.03;;
74791;SDS011;63319;46.046;17.802;2024-02-21T13:45:30;4.57;;;2.25;;
74791;SDS011;63319;46.046;17.802;2024-02-21T13:48:33;5.67;;;2.10;;
74791;SDS011;63319;46.046;17.802;2024-02-21T13:51:36;7.33;;;2.17;;
74791;SDS011;63319;46.046;17.802;2024-02-21T13:54:40;25.00;;;9.05;;
74791;SDS011;63319;46.046;17.802;2024-02-21T13:57:44;86.85;;;30.55;;
74791;SDS011;63319;46.046;17.802;2024-02-21T14:00:47;71.80;;;26.38;;
74791;SDS011;63319;46.046;17.802;2024-02-21T14:03:50;70.90;;;27.10;;
74791;SDS011;63319;46.046;17.802;2024-02-21T14:06:53;24.97;;;9.70;;
74791;SDS011;63319;46.046;17.802;2024-02-21T14:09:56;20.10;;;9.75;;
74791;SDS011;63319;46.046;17.802;2024-02-21T14:12:59;38.25;;;21.35;;
74791;SDS011;63319;46.046;17.802;2024-02-21T14:16:08;10.15;;;4.40;;
74791;SDS011;63319;46.046;17.802;2024-02-21T14:19:13;6.13;;;2.30;;
74791;SDS011;63319;46.046;17.802;2024-02-21T14:22:17;5.90;;;1.80;;
74791;SDS011;63319;46.046;17.802;2024-02-21T14:25:20;8.90;;;2.42;;
74791;SDS011;63319;46.046;17.802;2024-02-21T14:28:23;11.55;;;2.78;;
74791;SDS011;63319;46.046;17.802;2024-02-21T14:31:26;8.63;;;2.25;;
74791;SDS011;63319;46.046;17.802;2024-02-21T14:34:29;6.17;;;2.00;;
74791;SDS011;63319;46.046;17.802;2024-02-21T14:37:33;6.93;;;2.25;;
74791;SDS011;63319;46.046;17.802;2024-02-21T14:40:36;25.45;;;10.65;;
74791;SDS011;63319;46.046;17.802;2024-02-21T14:43:39;38.42;;;16.15;;
74791;SDS011;63319;46.046;17.802;2024-02-21T14:46:42;14.87;;;4.83;;
74791;SDS011;63319;46.046;17.802;2024-02-21T14:49:45;13.30;;;4.35;;
74791;SDS011;63319;46.046;17.802;2024-02-21T14:52:49;14.35;;;5.55;;
74791;SDS011;63319;46.046;17.802;2024-02-21T14:55:52;56.30;;;24.25;;
74791;SDS011;63319;46.046;17.802;2024-02-21T14:58:56;23.27;;;11.43;;
74791;SDS011;63319;46.046;17.802;2024-02-21T15:02:09;16.63;;;8.00;;
74791;SDS011;63319;46.046;17.802;2024-02-21T15:05:12;14.43;;;6.35;;
74791;SDS011;63319;46.046;17.802;2024-02-21T15:08:16;11.13;;;5.30;;
74791;SDS011;63319;46.046;17.802;2024-02-21T15:11:21;6.70;;;2.08;;
74791;SDS011;63319;46.046;17.802;2024-02-21T15:14:25;6.70;;;2.45;;
74791;SDS011;63319;46.046;17.802;2024-02-21T15:17:27;6.40;;;1.80;;
74791;SDS011;63319;46.046;17.802;2024-02-21T15:20:30;7.13;;;2.10;;
74791;SDS011;63319;46.046;17.802;2024-02-21T15:23:34;6.10;;;1.73;;
74791;SDS011;63319;46.046;17.802;2024-02-21T15:26:37;8.93;;;2.70;;
74791;SDS011;63319;46.046;17.802;2024-02-21T15:29:41;10.73;;;3.15;;
74791;SDS011;63319;46.046;17.802;2024-02-21T15:32:44;9.80;;;4.33;;
74791;SDS011;63319;46.046;17.802;2024-02-21T15:35:47;9.48;;;3.60;;
74791;SDS011;63319;46.046;17.802;2024-02-21T15:38:51;8.82;;;3.72;;
74791;SDS011;63319;46.046;17.802;2024-02-21T15:41:54;8.23;;;2.90;;
74791;SDS011;63319;46.046;17.802;2024-02-21T15:44:59;12.65;;;3.10;;
74791;SDS011;63319;46.046;17.802;2024-02-21T15:48:07;10.32;;;3.78;;
74791;SDS011;63319;46.046;17.802;2024-02-21T15:51:10;9.35;;;3.63;;
74791;SDS011;63319;46.046;17.802;2024-02-21T15:54:13;6.72;;;2.90;;
74791;SDS011;63319;46.046;17.802;2024-02-21T15:57:24;10.15;;;3.55;;
74791;SDS011;63319;46.046;17.802;2024-02-21T16:00:28;8.52;;;3.35;;
74791;SDS011;63319;46.046;17.802;2024-02-21T16:03:31;9.43;;;3.00;;
74791;SDS011;63319;46.046;17.802;2024-02-21T16:06:34;9.90;;;3.25;;
74791;SDS011;63319;46.046;17.802;2024-02-21T16:09:38;10.05;;;4.97;;
74791;SDS011;63319;46.046;17.802;2024-02-21T16:12:46;19.00;;;10.30;;
74791;SDS011;63319;46.046;17.802;2024-02-21T16:15:52;24.20;;;13.85;;
74791;SDS011;63319;46.046;17.802;2024-02-21T16:18:55;20.77;;;9.98;;
74791;SDS011;63319;46.046;17.802;2024-02-21T16:21:59;19.10;;;10.77;;
74791;SDS011;63319;46.046;17.802;2024-02-21T16:25:02;20.60;;;14.55;;
74791;SDS011;63319;46.046;17.802;2024-02-21T16:28:06;19.00;;;12.32;;
74791;SDS011;63319;46.046;17.802;2024-02-21T16:31:12;16.02;;;8.93;;
74791;SDS011;63319;46.046;17.802;2024-02-21T16:34:16;13.30;;;8.47;;
74791;SDS011;63319;46.046;17.802;2024-02-21T16:37:19;15.40;;;8.43;;
74791;SDS011;63319;46.046;17.802;2024-02-21T16:40:22;14.32;;;7.03;;
74791;SDS011;63319;46.046;17.802;2024-02-21T16:43:25;12.87;;;5.97;;
74791;SDS011;63319;46.046;17.802;2024-02-21T16:46:28;12.93;;;6.80;;
74791;SDS011;63319;46.046;17.802;2024-02-21T16:49:31;14.45;;;6.82;;
74791;SDS011;63319;46.046;17.802;2024-02-21T16:52:38;14.73;;;6.60;;
74791;SDS011;63319;46.046;17.802;2024-02-21T16:55:42;12.82;;;5.03;;
74791;SDS011;63319;46.046;17.802;2024-02-21T16:58:45;11.90;;;5.05;;
74791;SDS011;63319;46.046;17.802;2024-02-21T17:01:48;13.77;;;4.15;;
74791;SDS011;63319;46.046;17.802;2024-02-21T17:04:54;13.87;;;4.57;;
74791;SDS011;63319;46.046;17.802;2024-02-21T17:07:57;8.50;;;3.60;;
74791;SDS011;63319;46.046;17.802;2024-02-21T17:11:00;13.70;;;4.50;;
74791;SDS011;63319;46.046;17.802;2024-02-21T17:14:03;16.20;;;3.93;;
74791;SDS011;63319;46.046;17.802;2024-02-21T17:17:06;13.50;;;4.50;;
74791;SDS011;63319;46.046;17.802;2024-02-21T17:20:10;19.02;;;6.45;;
74791;SDS011;63319;46.046;17.802;2024-02-21T17:23:14;19.30;;;8.38;;
74791;SDS011;63319;46.046;17.802;2024-02-21T17:26:19;16.80;;;7.32;;
74791;SDS011;63319;46.046;17.802;2024-02-21T17:29:24;16.42;;;7.13;;
74791;SDS011;63319;46.046;17.802;2024-02-21T17:32:29;17.30;;;7.47;;
74791;SDS011;63319;46.046;17.802;2024-02-21T17:35:32;23.60;;;9.93;;
74791;SDS011;63319;46.046;17.802;2024-02-21T17:38:37;19.48;;;6.90;;
74791;SDS011;63319;46.046;17.802;2024-02-21T17:41:40;17.20;;;7.38;;
74791;SDS011;63319;46.046;17.802;2024-02-21T17:44:43;19.63;;;7.80;;
74791;SDS011;63319;46.046;17.802;2024-02-21T17:47:48;17.67;;;7.20;;
74791;SDS011;63319;46.046;17.802;2024-02-21T17:50:51;16.38;;;6.88;;
74791;SDS011;63319;46.046;17.802;2024-02-21T17:53:53;24.10;;;6.93;;
74791;SDS011;63319;46.046;17.802;2024-02-21T17:56:56;17.75;;;7.20;;
74791;SDS011;63319;46.046;17.802;2024-02-21T18:00:03;12.93;;;6.65;;
74791;SDS011;63319;46.046;17.802;2024-02-21T18:03:13;10.52;;;4.47;;
74791;SDS011;63319;46.046;17.802;2024-02-21T18:06:22;10.00;;;4.00;;
74791;SDS011;63319;46.046;17.802;2024-02-21T18:09:25;8.48;;;3.60;;